Time;durP1;ratioP1;P1;durP2;ratioP2;P2;SDS_P1;SDS_P2;PMS_P1;PMS_P2;Temp;Humidity;BMP_temperature;BMP_pressure;BME280_temperature;BME280_humidity;BME280_pressure;Samples;Min_cycle;Max_cycle;Signal;HPM_P1;HPM_P2
2021/03/12 00:00:50;;;;;;;1.20;0.90;;;7.00;98.00;;;;;;5071383;28;20460;-75
2021/03/12 00:03:21;;;;;;;1.20;1.00;;;6.90;98.00;;;;;;5078139;28;20949;-75
2021/03/12 00:05:50;;;;;;;1.20;0.90;;;6.90;98.00;;;;;;5075320;28;20445;-75
2021/03/12 00:08:16;;;;;;;1.20;0.90;;;7.00;98.00;;;;;;5077672;28;20835;-74
2021/03/12 00:10:44;;;;;;;1.20;1.00;;;7.00;98.00;;;;;;5075024;28;20502;-75
2021/03/12 00:13:11;;;;;;;1.20;1.07;;;7.00;98.00;;;;;;5077543;28;20458;-75
2021/03/12 00:15:38;;;;;;;1.20;0.90;;;7.00;98.00;;;;;;5075189;28;20538;-75
2021/03/12 00:18:05;;;;;;;1.30;1.10;;;7.00;98.00;;;;;;5077637;28;20468;-75
2021/03/12 00:20:34;;;;;;;1.20;0.90;;;7.00;98.00;;;;;;5074955;28;20952;-75
2021/03/12 00:23:01;;;;;;;1.20;0.90;;;6.90;98.00;;;;;;5077575;28;20514;-75
2021/03/12 00:25:34;;;;;;;1.20;0.90;;;6.80;98.00;;;;;;5074974;28;20511;-75
2021/03/12 00:28:00;;;;;;;1.20;0.90;;;6.80;98.00;;;;;;5077642;28;20483;-75
2021/03/12 00:30:27;;;;;;;1.20;0.90;;;6.90;98.00;;;;;;5074708;28;20460;-75
2021/03/12 00:32:53;;;;;;;2.60;1.53;;;6.90;98.00;;;;;;5077390;28;20488;-75
2021/03/12 00:35:20;;;;;;;1.20;1.00;;;6.90;98.00;;;;;;5074992;28;21009;-75
2021/03/12 00:37:47;;;;;;;1.20;1.00;;;7.00;98.00;;;;;;5077276;28;20462;-75
2021/03/12 00:40:15;;;;;;;1.20;1.00;;;7.10;98.00;;;;;;5074864;28;20950;-76
2021/03/12 00:42:43;;;;;;;1.20;1.10;;;7.10;98.00;;;;;;5077707;28;20459;-75
2021/03/12 00:45:14;;;;;;;1.20;0.97;;;7.10;98.00;;;;;;5076642;28;20521;-75
2021/03/12 00:47:41;;;;;;;1.50;1.07;;;7.20;98.00;;;;;;5077104;28;20470;-75
2021/03/12 00:50:10;;;;;;;1.20;0.97;;;7.20;98.00;;;;;;5077637;28;20452;-75
2021/03/12 00:52:37;;;;;;;1.20;0.90;;;7.20;98.00;;;;;;5076388;28;20459;-75
2021/03/12 00:55:06;;;;;;;1.20;0.90;;;7.20;98.00;;;;;;5077154;28;21033;-75
2021/03/12 00:57:33;;;;;;;1.20;0.90;;;7.30;98.00;;;;;;5074504;28;20539;-75
2021/03/12 01:00:02;;;;;;;1.20;1.00;;;7.30;98.00;;;;;;5077168;28;20975;-75
2021/03/12 01:02:29;;;;;;;1.20;0.90;;;7.30;98.00;;;;;;5074447;28;20548;-75
2021/03/12 01:04:56;;;;;;;1.20;1.00;;;7.30;98.00;;;;;;5076980;28;20455;-75
2021/03/12 01:07:22;;;;;;;1.20;1.00;;;7.40;98.00;;;;;;5074667;28;20459;-75
2021/03/12 01:09:49;;;;;;;1.20;1.00;;;7.40;98.00;;;;;;5077254;28;20998;-75
2021/03/12 01:12:17;;;;;;;1.33;1.03;;;7.40;98.00;;;;;;5070796;28;20453;-75
2021/03/12 01:14:43;;;;;;;1.20;0.93;;;7.40;98.00;;;;;;5073734;28;20864;-75
2021/03/12 01:17:10;;;;;;;1.20;1.00;;;7.40;98.00;;;;;;5070003;28;20482;-75
2021/03/12 01:19:37;;;;;;;1.20;1.00;;;7.40;98.00;;;;;;5073791;28;20483;-75
2021/03/12 01:22:03;;;;;;;1.20;0.90;;;7.40;98.00;;;;;;5070037;28;20520;-75
2021/03/12 01:24:31;;;;;;;1.20;0.90;;;7.40;98.00;;;;;;5073717;28;20464;-75
2021/03/12 01:26:59;;;;;;;1.20;1.00;;;7.40;98.00;;;;;;5071360;28;20485;-75
2021/03/12 01:29:27;;;;;;;1.20;0.93;;;7.40;98.00;;;;;;5073476;28;20460;-75
2021/03/12 01:31:54;;;;;;;1.20;1.00;;;7.40;98.00;;;;;;5071108;28;20481;-75
2021/03/12 01:34:22;;;;;;;1.20;1.00;;;7.40;98.00;;;;;;5073311;28;20962;-75
2021/03/12 01:36:49;;;;;;;1.20;1.00;;;7.40;98.00;;;;;;5086051;28;20487;-75
2021/03/12 01:39:16;;;;;;;1.20;1.00;;;7.50;98.00;;;;;;5073539;28;20793;-75
2021/03/12 01:41:43;;;;;;;1.20;0.90;;;7.50;98.00;;;;;;5069765;28;20582;-75
2021/03/12 01:44:09;;;;;;;1.20;0.90;;;7.40;98.00;;;;;;5073576;28;20457;-75
2021/03/12 01:46:36;;;;;;;1.20;1.00;;;7.40;98.00;;;;;;5070826;28;20501;-75
2021/03/12 01:49:03;;;;;;;1.20;0.97;;;7.40;98.00;;;;;;5073403;28;20819;-75
2021/03/12 01:51:30;;;;;;;1.20;1.00;;;7.50;98.00;;;;;;5070818;28;20461;-75
2021/03/12 01:53:56;;;;;;;1.20;0.90;;;7.50;98.00;;;;;;5073520;28;20493;-75
2021/03/12 01:56:23;;;;;;;1.30;1.10;;;7.50;98.00;;;;;;5071017;28;20495;-75
2021/03/12 01:58:49;;;;;;;1.20;0.90;;;7.50;98.00;;;;;;5073174;28;20537;-75
2021/03/12 02:01:16;;;;;;;1.20;0.97;;;7.60;98.00;;;;;;5070852;28;20468;-75
2021/03/12 02:03:43;;;;;;;1.20;1.00;;;7.60;98.00;;;;;;5073277;28;21152;-75
2021/03/12 02:06:10;;;;;;;1.20;0.90;;;7.60;98.00;;;;;;5070768;28;20475;-75
2021/03/12 02:08:37;;;;;;;1.20;1.00;;;7.70;98.00;;;;;;5073187;28;20495;-75
2021/03/12 02:11:04;;;;;;;1.20;1.00;;;7.70;98.00;;;;;;5070239;28;20500;-75
2021/03/12 02:13:38;;;;;;;1.20;1.00;;;7.80;97.00;;;;;;5072990;28;20453;-75
2021/03/12 02:16:12;;;;;;;1.20;0.90;;;7.80;97.10;;;;;;5070292;28;20480;-75
2021/03/12 02:18:50;;;;;;;1.20;1.00;;;7.80;97.90;;;;;;5072885;28;20594;-75
2021/03/12 02:21:23;;;;;;;1.20;0.90;;;7.60;98.00;;;;;;5070347;28;20453;-75
2021/03/12 02:24:02;;;;;;;1.20;0.90;;;7.50;98.00;;;;;;5072576;28;20466;-75
2021/03/12 02:26:39;;;;;;;1.20;0.90;;;7.40;98.00;;;;;;5069989;28;20456;-75
2021/03/12 02:29:09;;;;;;;1.20;0.93;;;7.20;98.00;;;;;;5072627;28;20826;-75
2021/03/12 02:31:37;;;;;;;1.30;1.10;;;7.20;98.00;;;;;;5069888;28;20814;-75
2021/03/12 02:34:06;;;;;;;1.20;1.00;;;7.10;98.00;;;;;;5072526;28;20503;-75
2021/03/12 02:36:36;;;;;;;1.20;0.90;;;7.10;98.00;;;;;;5069658;28;20484;-75
2021/03/12 02:39:07;;;;;;;1.40;1.37;;;7.00;98.00;;;;;;5072419;28;20819;-75
2021/03/12 02:41:34;;;;;;;1.20;1.13;;;7.00;98.00;;;;;;5069877;28;20513;-75
2021/03/12 02:44:03;;;;;;;1.20;1.00;;;7.10;98.00;;;;;;5072433;28;20462;-75
2021/03/12 02:46:31;;;;;;;1.20;1.00;;;7.10;98.00;;;;;;5069604;28;20477;-75
2021/03/12 02:48:58;;;;;;;1.20;0.90;;;7.10;98.00;;;;;;5072307;28;20458;-75
2021/03/12 02:51:25;;;;;;;1.20;1.00;;;7.10;98.00;;;;;;5069639;28;20489;-75
2021/03/12 02:53:53;;;;;;;1.20;1.00;;;7.10;98.00;;;;;;5072659;28;20464;-75
2021/03/12 02:56:22;;;;;;;1.20;0.90;;;7.00;98.00;;;;;;5070117;28;20481;-75
2021/03/12 02:58:50;;;;;;;1.20;1.00;;;7.10;98.00;;;;;;5072331;28;20892;-75
2021/03/12 03:01:18;;;;;;;1.20;0.90;;;7.10;98.00;;;;;;5069221;28;20463;-75
2021/03/12 03:03:48;;;;;;;1.20;0.97;;;7.00;98.00;;;;;;5072010;28;20458;-75
2021/03/12 03:06:16;;;;;;;1.20;1.00;;;7.10;98.00;;;;;;5069337;28;20834;-75
2021/03/12 03:08:46;;;;;;;1.20;0.90;;;7.10;98.00;;;;;;5071920;28;20485;-75
2021/03/12 03:11:15;;;;;;;1.20;0.90;;;7.00;98.00;;;;;;5069401;28;20518;-75
2021/03/12 03:13:46;;;;;;;1.67;1.10;;;7.00;98.00;;;;;;5072218;28;20506;-75
2021/03/12 03:16:16;;;;;;;1.20;0.90;;;7.00;98.00;;;;;;5069635;28;20541;-75
2021/03/12 03:18:49;;;;;;;1.20;0.90;;;7.00;98.00;;;;;;5071638;28;20468;-75
2021/03/12 03:21:16;;;;;;;1.20;1.00;;;7.00;98.00;;;;;;5069088;28;20458;-75
2021/03/12 03:23:44;;;;;;;1.20;1.00;;;7.00;98.00;;;;;;5071599;28;20452;-75
2021/03/12 03:26:11;;;;;;;1.30;1.00;;;7.00;98.00;;;;;;5069002;28;20854;-75
2021/03/12 03:28:38;;;;;;;1.20;0.90;;;7.00;98.00;;;;;;5071524;28;20459;-75
2021/03/12 03:31:05;;;;;;;1.20;1.00;;;7.00;98.00;;;;;;5068928;28;20486;-75
2021/03/12 03:33:33;;;;;;;1.20;0.90;;;7.00;98.00;;;;;;5071531;28;20464;-75
2021/03/12 03:36:01;;;;;;;1.30;1.10;;;7.00;98.00;;;;;;5068419;28;20833;-75
2021/03/12 03:38:28;;;;;;;2.03;1.37;;;7.10;98.00;;;;;;5071412;28;20455;-75
2021/03/12 03:40:55;;;;;;;1.30;1.03;;;7.00;98.00;;;;;;5068805;28;20492;-75
2021/03/12 03:43:26;;;;;;;1.20;1.00;;;7.00;98.00;;;;;;5071328;28;20824;-75
2021/03/12 03:45:55;;;;;;;1.20;0.90;;;7.00;98.00;;;;;;5068466;28;20454;-75
2021/03/12 03:48:23;;;;;;;1.20;1.00;;;7.00;98.00;;;;;;5071512;28;21007;-75
2021/03/12 03:50:51;;;;;;;1.30;0.97;;;7.00;98.00;;;;;;5068895;28;20468;-75
2021/03/12 03:53:20;;;;;;;1.20;1.00;;;7.00;98.00;;;;;;5071174;28;20465;-75
2021/03/12 03:55:47;;;;;;;1.20;0.90;;;7.00;98.00;;;;;;5068407;28;20631;-75
2021/03/12 03:58:15;;;;;;;1.20;0.90;;;7.00;98.00;;;;;;5071535;28;20459;-75
2021/03/12 04:00:43;;;;;;;1.20;0.90;;;7.00;98.00;;;;;;5068997;28;20459;-75
2021/03/12 04:03:11;;;;;;;1.20;0.90;;;7.00;98.00;;;;;;5071161;28;20482;-75
2021/03/12 04:05:39;;;;;;;1.20;0.90;;;7.00;98.00;;;;;;5068878;28;20479;-75
2021/03/12 04:08:06;;;;;;;1.20;1.00;;;7.00;98.00;;;;;;5071262;28;20465;-75
2021/03/12 04:10:34;;;;;;;1.20;0.90;;;7.00;98.00;;;;;;5068853;28;20454;-75
2021/03/12 04:13:02;;;;;;;1.63;1.20;;;6.90;98.00;;;;;;5070928;28;20489;-75
2021/03/12 04:15:29;;;;;;;1.63;1.10;;;6.80;98.00;;;;;;5070284;28;20534;-75
2021/03/12 04:17:57;;;;;;;1.20;0.90;;;6.80;98.00;;;;;;5085447;28;20531;-75
2021/03/12 04:20:24;;;;;;;1.20;0.90;;;6.80;98.00;;;;;;5071015;28;20561;-74
2021/03/12 04:22:51;;;;;;;1.20;0.90;;;6.80;97.00;;;;;;5068718;28;20872;-74
2021/03/12 04:25:19;;;;;;;1.20;0.90;;;6.80;95.90;;;;;;5071015;28;20467;-74
2021/03/12 04:27:47;;;;;;;1.20;0.90;;;6.90;95.50;;;;;;5068387;28;20458;-75
2021/03/12 04:30:15;;;;;;;1.20;0.90;;;6.80;95.50;;;;;;5070872;28;20502;-72
2021/03/12 04:32:42;;;;;;;1.20;1.00;;;6.80;94.50;;;;;;5068218;28;20462;-72
2021/03/12 04:35:09;;;;;;;1.20;1.00;;;6.80;94.10;;;;;;5070672;28;20522;-72
2021/03/12 04:37:36;;;;;;;1.20;1.00;;;6.80;92.90;;;;;;5068261;28;20459;-72
2021/03/12 04:40:05;;;;;;;1.20;1.00;;;6.70;93.30;;;;;;5070812;28;20457;-72
2021/03/12 04:42:32;;;;;;;1.20;0.90;;;6.70;93.80;;;;;;5068139;28;20566;-72
2021/03/12 04:45:01;;;;;;;1.20;0.90;;;6.70;92.90;;;;;;5070707;28;20486;-72
2021/03/12 04:47:28;;;;;;;1.20;1.00;;;6.70;92.80;;;;;;5069157;28;20839;-72
2021/03/12 04:49:55;;;;;;;1.20;0.90;;;6.70;92.90;;;;;;5074361;28;20466;-71
2021/03/12 04:52:22;;;;;;;1.20;1.00;;;6.70;93.00;;;;;;5071733;28;20457;-72
2021/03/12 04:54:48;;;;;;;1.20;1.00;;;6.70;91.50;;;;;;5074187;28;20470;-72
2021/03/12 04:57:16;;;;;;;1.20;0.90;;;6.70;93.00;;;;;;5071689;28;20464;-72
2021/03/12 04:59:43;;;;;;;1.40;1.20;;;6.60;92.60;;;;;;5073798;28;20457;-72
2021/03/12 05:02:12;;;;;;;1.20;1.00;;;6.70;91.90;;;;;;5071369;28;20489;-72
2021/03/12 05:04:40;;;;;;;1.20;0.90;;;6.70;92.30;;;;;;5073897;28;20485;-72
2021/03/12 05:07:06;;;;;;;1.20;1.00;;;6.70;92.40;;;;;;5071707;28;20457;-72
2021/03/12 05:09:33;;;;;;;1.20;0.90;;;6.70;92.10;;;;;;5074251;28;20458;-72
2021/03/12 05:12:00;;;;;;;1.20;1.10;;;6.70;91.80;;;;;;5071458;28;20464;-72
2021/03/12 05:14:26;;;;;;;1.20;1.00;;;6.70;92.10;;;;;;5074035;28;20488;-72
2021/03/12 05:16:53;;;;;;;1.20;1.00;;;6.80;92.10;;;;;;5071174;28;20554;-72
2021/03/12 05:19:20;;;;;;;1.20;1.00;;;6.80;92.60;;;;;;5073878;28;20466;-72
2021/03/12 05:21:47;;;;;;;1.20;0.90;;;6.70;93.00;;;;;;5070964;28;20543;-72
2021/03/12 05:24:13;;;;;;;1.20;1.00;;;6.70;93.40;;;;;;5089426;28;20480;-72
2021/03/12 05:26:40;;;;;;;1.20;1.00;;;6.80;91.70;;;;;;5071225;28;20449;-72
2021/03/12 05:29:07;;;;;;;1.20;0.90;;;6.80;90.70;;;;;;5073648;28;20496;-72
2021/03/12 05:31:34;;;;;;;1.20;1.00;;;6.70;92.10;;;;;;5070691;28;20517;-72
2021/03/12 05:34:01;;;;;;;1.20;1.00;;;6.60;92.40;;;;;;5073655;28;20456;-72
2021/03/12 05:36:28;;;;;;;1.20;0.90;;;6.60;91.20;;;;;;5070847;28;20853;-72
2021/03/12 05:38:55;;;;;;;1.20;0.90;;;6.60;91.70;;;;;;5073584;28;20878;-71
2021/03/12 05:41:22;;;;;;;1.20;0.90;;;6.60;90.80;;;;;;5070712;28;20467;-72
2021/03/12 05:43:49;;;;;;;1.20;1.00;;;6.60;90.90;;;;;;5073362;28;20496;-72
2021/03/12 05:46:16;;;;;;;1.20;1.00;;;6.50;92.10;;;;;;5070329;28;20478;-72
2021/03/12 05:48:44;;;;;;;1.20;0.97;;;6.50;91.80;;;;;;5073345;28;20460;-72
2021/03/12 05:51:12;;;;;;;1.20;0.93;;;6.50;92.20;;;;;;5070939;28;20452;-72
2021/03/12 05:53:39;;;;;;;1.20;0.90;;;6.50;92.30;;;;;;5073333;28;20973;-72
2021/03/12 05:56:06;;;;;;;1.20;0.90;;;6.40;93.20;;;;;;5086086;28;20496;-72
2021/03/12 05:58:33;;;;;;;1.20;0.93;;;6.40;93.00;;;;;;5072509;28;20840;-72
2021/03/12 06:00:59;;;;;;;1.20;1.00;;;6.40;93.20;;;;;;5070625;28;20456;-72
2021/03/12 06:03:26;;;;;;;1.20;0.97;;;6.40;93.30;;;;;;5073084;28;20453;-72
2021/03/12 06:05:52;;;;;;;1.20;1.00;;;6.40;93.70;;;;;;5070481;28;20499;-72
2021/03/12 06:08:19;;;;;;;1.70;1.30;;;6.40;93.60;;;;;;5073109;28;20515;-72
2021/03/12 06:10:46;;;;;;;1.20;0.90;;;6.30;94.00;;;;;;5070505;28;20877;-72
2021/03/12 06:13:13;;;;;;;1.20;0.90;;;6.30;94.60;;;;;;5072866;28;20492;-72
2021/03/12 06:15:43;;;;;;;1.40;1.10;;;6.30;94.30;;;;;;5072877;28;20486;-72
2021/03/12 06:18:18;;;;;;;1.20;1.00;;;6.40;93.90;;;;;;5071668;28;20937;-72
2021/03/12 06:20:45;;;;;;;1.20;0.90;;;6.40;94.30;;;;;;5071142;28;20531;-72
2021/03/12 06:23:12;;;;;;;1.20;0.90;;;6.40;93.90;;;;;;5072910;28;20460;-72
2021/03/12 06:25:40;;;;;;;1.20;1.00;;;6.40;94.30;;;;;;5072674;28;20454;-72
2021/03/12 06:28:16;;;;;;;1.20;0.90;;;6.50;94.20;;;;;;5085637;28;20466;-72
2021/03/12 06:30:43;;;;;;;1.20;0.90;;;6.40;94.30;;;;;;5072008;28;20473;-72
2021/03/12 06:33:23;;;;;;;1.20;0.90;;;6.40;93.50;;;;;;5070907;28;20464;-72
2021/03/12 06:35:50;;;;;;;1.20;0.90;;;6.40;94.30;;;;;;5069907;28;20494;-72
2021/03/12 06:38:16;;;;;;;1.20;0.90;;;6.50;94.30;;;;;;5072509;28;20539;-72
2021/03/12 06:40:43;;;;;;;1.20;0.90;;;6.50;94.50;;;;;;5072085;28;20467;-72
2021/03/12 06:43:11;;;;;;;1.20;0.90;;;6.50;94.70;;;;;;5070532;28;20453;-73
2021/03/12 06:45:58;;;;;;;1.20;0.90;;;6.60;94.70;;;;;;5072425;28;20790;-73
2021/03/12 06:48:26;;;;;;;1.20;0.90;;;6.60;95.10;;;;;;5072503;28;20941;-74
2021/03/12 06:50:54;;;;;;;1.20;1.00;;;6.60;94.70;;;;;;5070026;28;20555;-74
2021/03/12 06:53:33;;;;;;;1.20;0.90;;;6.70;94.80;;;;;;5087844;28;20449;-74
2021/03/12 06:56:01;;;;;;;1.20;0.90;;;6.80;94.70;;;;;;5069996;28;20519;-74
2021/03/12 06:58:28;;;;;;;1.20;0.90;;;6.80;95.00;;;;;;5072170;28;20457;-74
2021/03/12 07:00:56;;;;;;;1.20;0.90;;;6.80;95.10;;;;;;5069651;28;20529;-74
2021/03/12 07:03:30;;;;;;;1.20;1.00;;;6.80;95.70;;;;;;5072032;28;21004;-74
2021/03/12 07:06:06;;;;;;;1.20;0.90;;;6.80;95.90;;;;;;5069505;28;20455;-73
2021/03/12 07:08:35;;;;;;;1.20;1.00;;;6.80;96.80;;;;;;5072050;28;20463;-73
2021/03/12 07:11:03;;;;;;;1.20;1.00;;;6.80;97.10;;;;;;5068404;28;20515;-73
2021/03/12 07:13:29;;;;;;;1.20;0.90;;;6.90;97.00;;;;;;5087382;28;20483;-74
2021/03/12 07:15:58;;;;;;;1.20;0.90;;;6.90;97.10;;;;;;5069116;28;20519;-73
2021/03/12 07:18:25;;;;;;;1.20;0.90;;;6.90;97.20;;;;;;5071658;28;20485;-73
2021/03/12 07:20:52;;;;;;;1.20;0.90;;;6.90;97.20;;;;;;5069546;28;20841;-73
2021/03/12 07:23:23;;;;;;;1.20;0.90;;;6.90;97.60;;;;;;5071615;28;20490;-75
2021/03/12 07:25:51;;;;;;;1.20;0.93;;;6.90;97.70;;;;;;5071006;28;20468;-74
2021/03/12 07:28:21;;;;;;;1.20;0.90;;;6.90;98.00;;;;;;5071312;28;20460;-74
2021/03/12 07:30:50;;;;;;;1.30;1.20;;;6.90;98.00;;;;;;5071405;28;20547;-74
2021/03/12 07:33:24;;;;;;;1.20;0.90;;;6.90;98.00;;;;;;5070993;28;20542;-72
2021/03/12 07:35:53;;;;;;;1.20;1.00;;;6.90;98.00;;;;;;5070038;28;20540;-73
2021/03/12 07:38:22;;;;;;;1.20;0.90;;;7.00;98.00;;;;;;5071356;28;20539;-73
2021/03/12 07:40:53;;;;;;;1.20;0.90;;;7.10;98.00;;;;;;5071410;28;20483;-73
2021/03/12 07:43:20;;;;;;;1.20;1.00;;;7.20;98.00;;;;;;5070962;28;20461;-73
2021/03/12 07:45:47;;;;;;;1.43;1.20;;;7.30;98.00;;;;;;5071102;28;20508;-73
2021/03/12 07:48:15;;;;;;;1.20;0.90;;;7.40;98.00;;;;;;5068585;28;20569;-73
2021/03/12 07:50:42;;;;;;;1.20;0.90;;;7.40;98.00;;;;;;5086806;28;20460;-72
2021/03/12 07:53:10;;;;;;;1.20;0.90;;;7.50;97.80;;;;;;5068733;28;20457;-73
2021/03/12 07:55:53;;;;;;;1.20;0.90;;;7.50;98.00;;;;;;5071054;28;20556;-72
2021/03/12 07:58:57;;;;;;;1.20;0.97;;;7.40;96.70;;;;;;5070362;28;20977;-73
2021/03/12 08:01:25;;;;;;;1.20;0.90;;;7.50;97.00;;;;;;5068745;28;21285;-73
2021/03/12 08:03:54;;;;;;;1.20;0.90;;;7.50;96.90;;;;;;5071474;28;20510;-74
2021/03/12 08:06:33;;;;;;;1.20;1.00;;;7.60;97.80;;;;;;5068622;28;20458;-73
2021/03/12 08:09:00;;;;;;;1.20;0.90;;;7.60;96.50;;;;;;5071024;28;20988;-73
2021/03/12 08:11:29;;;;;;;1.20;1.00;;;7.60;96.70;;;;;;5068169;28;20495;-73
2021/03/12 08:14:12;;;;;;;1.20;0.90;;;7.60;98.00;;;;;;5071038;28;20458;-72
2021/03/12 08:17:16;;;;;;;1.20;0.93;;;7.50;96.30;;;;;;5068858;28;20516;-73
2021/03/12 08:19:47;;;;;;;1.20;1.00;;;7.50;96.90;;;;;;5069613;28;20547;-75
2021/03/12 08:22:45;;;;;;;1.20;0.90;;;7.50;96.90;;;;;;5070526;28;20500;-76
2021/03/12 08:25:14;;;;;;;1.20;0.90;;;7.50;97.80;;;;;;5074286;28;21578;-75
2021/03/12 08:27:43;;;;;;;1.20;0.90;;;7.50;98.00;;;;;;5072119;28;20457;-75
2021/03/12 08:30:11;;;;;;;1.20;1.00;;;7.50;98.00;;;;;;5074108;28;21046;-75
2021/03/12 08:32:45;;;;;;;1.20;0.90;;;7.60;98.00;;;;;;5071921;28;20459;-76
2021/03/12 08:35:38;;;;;;;1.20;1.00;;;7.70;98.00;;;;;;5089491;28;20493;-76
2021/03/12 08:38:39;;;;;;;1.20;0.90;;;7.80;98.00;;;;;;5071271;28;20987;-76
2021/03/12 08:41:12;;;;;;;1.40;1.00;;;7.90;98.00;;;;;;5071329;28;20954;-76
2021/03/12 08:43:50;;;;;;;1.20;0.90;;;7.90;97.80;;;;;;5073528;28;20481;-76
2021/03/12 08:46:22;;;;;;;1.20;1.00;;;8.00;98.00;;;;;;5071013;28;20986;-75
2021/03/12 08:48:50;;;;;;;1.20;0.90;;;8.10;98.00;;;;;;5073283;28;20454;-76
2021/03/12 08:51:20;;;;;;;1.30;1.00;;;8.30;98.00;;;;;;5071105;28;20465;-76
2021/03/12 08:53:50;;;;;;;1.20;0.90;;;8.70;96.80;;;;;;5088472;28;20483;-77
2021/03/12 08:56:23;;;;;;;1.20;1.00;;;8.80;95.90;;;;;;5070719;28;21041;-73
2021/03/12 08:58:49;;;;;;;1.20;0.90;;;8.90;96.70;;;;;;5073139;28;20489;-75
2021/03/12 09:01:17;;;;;;;1.20;1.00;;;9.00;95.30;;;;;;5071003;28;20454;-76
2021/03/12 09:03:47;;;;;;;1.20;1.00;;;9.00;95.90;;;;;;5073010;28;20457;-76
2021/03/12 09:06:16;;;;;;;1.20;0.90;;;9.00;93.90;;;;;;5070713;28;20460;-77
2021/03/12 09:08:43;;;;;;;1.20;0.90;;;9.00;94.40;;;;;;5072816;28;20550;-77
2021/03/12 09:11:15;;;;;;;1.30;1.03;;;9.10;93.30;;;;;;5071220;28;21014;-76
2021/03/12 09:13:44;;;;;;;1.20;1.00;;;9.10;92.40;;;;;;5073249;28;20454;-76
2021/03/12 09:16:15;;;;;;;1.40;1.07;;;9.10;91.60;;;;;;5070722;28;20557;-77
2021/03/12 09:18:42;;;;;;;1.20;0.90;;;9.20;92.80;;;;;;5073494;28;20937;-76
2021/03/12 09:21:10;;;;;;;1.20;1.00;;;9.10;92.20;;;;;;5070844;28;20462;-77
2021/03/12 09:23:38;;;;;;;1.20;1.00;;;9.00;91.50;;;;;;5072814;28;21004;-78
2021/03/12 09:26:07;;;;;;;1.20;1.00;;;8.90;91.70;;;;;;5070843;28;20453;-76
2021/03/12 09:28:36;;;;;;;1.20;0.90;;;8.80;91.00;;;;;;5072989;28;20465;-75
2021/03/12 09:31:07;;;;;;;1.20;0.90;;;8.80;92.00;;;;;;5071621;28;20711;-75
2021/03/12 09:33:39;;;;;;;1.30;1.10;;;8.80;90.90;;;;;;5070902;28;20464;-76
2021/03/12 09:36:22;;;;;;;1.20;0.90;;;8.90;91.90;;;;;;5070659;28;20556;-75
2021/03/12 09:38:50;;;;;;;1.20;0.90;;;9.00;91.10;;;;;;5072524;28;20471;-75
2021/03/12 09:41:23;;;;;;;1.20;0.90;;;8.90;90.90;;;;;;5070615;28;20454;-75
2021/03/12 09:44:03;;;;;;;1.20;0.90;;;9.00;92.00;;;;;;5071997;28;20462;-76
2021/03/12 09:46:31;;;;;;;1.20;1.00;;;9.20;91.50;;;;;;5069777;28;20954;-76
2021/03/12 09:48:58;;;;;;;1.20;1.00;;;9.20;89.80;;;;;;5072377;28;20854;-76
2021/03/12 09:51:29;;;;;;;1.20;0.90;;;9.10;90.90;;;;;;5070423;28;20464;-76
2021/03/12 09:53:55;;;;;;;1.20;1.00;;;9.10;91.20;;;;;;5072026;28;20888;-76
2021/03/12 09:56:26;;;;;;;1.20;1.07;;;9.00;90.50;;;;;;5069582;28;20553;-77
2021/03/12 09:58:53;;;;;;;1.23;0.93;;;9.00;92.10;;;;;;5071508;28;20749;-76
2021/03/12 10:01:21;;;;;;;1.20;1.00;;;9.00;92.10;;;;;;5070117;28;20777;-76
2021/03/12 10:03:48;;;;;;;1.20;1.00;;;9.10;93.20;;;;;;5072063;28;20466;-76
2021/03/12 10:06:15;;;;;;;1.20;1.03;;;9.20;92.70;;;;;;5069383;28;20457;-72
2021/03/12 10:09:01;;;;;;;1.20;1.00;;;9.20;91.90;;;;;;5071954;28;20457;-73
2021/03/12 10:11:38;;;;;;;1.20;1.00;;;9.30;91.70;;;;;;5085336;28;20463;-73
2021/03/12 10:14:29;;;;;;;1.20;0.90;;;9.30;91.30;;;;;;5071790;28;20516;-73
2021/03/12 10:17:15;;;;;;;1.20;1.00;;;9.40;90.30;;;;;;5080052;28;20578;-74
2021/03/12 10:19:45;;;;;;;1.20;0.90;;;9.50;90.70;;;;;;5091944;28;20560;-75
2021/03/12 10:22:20;;;;;;;1.20;0.90;;;9.50;89.60;;;;;;5089890;28;20488;-76
2021/03/12 10:24:54;;;;;;;1.20;1.00;;;9.50;90.00;;;;;;5091738;28;20717;-75
2021/03/12 10:27:21;;;;;;;1.20;0.93;;;9.60;89.20;;;;;;5089941;28;20536;-76
2021/03/12 10:29:51;;;;;;;1.20;1.00;;;9.70;88.80;;;;;;5091903;28;20818;-76
2021/03/12 10:32:20;;;;;;;1.20;1.00;;;9.60;88.40;;;;;;5072274;28;20622;-76
2021/03/12 10:34:49;;;;;;;1.20;0.90;;;9.50;88.70;;;;;;5091559;28;20454;-75
2021/03/12 10:37:17;;;;;;;1.20;0.90;;;9.40;90.00;;;;;;5087813;28;20490;-75
2021/03/12 10:39:45;;;;;;;1.20;1.00;;;9.30;89.70;;;;;;5091792;28;20548;-76
2021/03/12 10:42:12;;;;;;;1.20;0.90;;;9.30;91.50;;;;;;5089381;28;20458;-76
2021/03/12 10:44:52;;;;;;;1.20;0.90;;;9.30;91.60;;;;;;5091261;28;20456;-76
2021/03/12 10:47:20;;;;;;;1.20;1.00;;;9.30;90.30;;;;;;5088976;28;20501;-76
2021/03/12 10:49:47;;;;;;;1.20;1.00;;;9.20;91.40;;;;;;5091474;28;20466;-76
2021/03/12 10:52:29;;;;;;;1.20;1.00;;;9.10;93.00;;;;;;5089170;28;20459;-76
2021/03/12 10:54:56;;;;;;;1.20;1.00;;;9.20;94.90;;;;;;5091173;28;20466;-75
2021/03/12 10:57:40;;;;;;;1.20;0.90;;;9.60;93.80;;;;;;5088661;28;20517;-76
2021/03/12 11:00:19;;;;;;;1.20;1.00;;;10.00;93.20;;;;;;5091300;28;20939;-76
2021/03/12 11:02:48;;;;;;;1.20;0.97;;;10.30;93.40;;;;;;5089342;28;20482;-76
2021/03/12 11:05:17;;;;;;;1.30;1.03;;;10.40;93.10;;;;;;5092782;28;20459;-76
2021/03/12 11:07:44;;;;;;;1.20;1.00;;;10.40;92.30;;;;;;5089111;28;20458;-75
2021/03/12 11:10:12;;;;;;;1.20;0.90;;;10.60;91.90;;;;;;5092064;28;20494;-74
2021/03/12 11:12:42;;;;;;;1.20;1.00;;;10.60;91.40;;;;;;5089736;28;20488;-75
2021/03/12 11:15:09;;;;;;;2.83;1.30;;;10.80;90.40;;;;;;5091087;28;20457;-76
2021/03/12 11:17:45;;;;;;;1.20;1.00;;;11.00;89.10;;;;;;5089261;28;20857;-75
2021/03/12 11:20:14;;;;;;;1.20;1.00;;;11.30;90.60;;;;;;5090935;28;20458;-75
2021/03/12 11:22:42;;;;;;;1.20;0.90;;;11.50;85.70;;;;;;5089011;28;20456;-75
2021/03/12 11:25:09;;;;;;;1.20;0.90;;;11.70;87.60;;;;;;5090687;28;20489;-75
2021/03/12 11:27:36;;;;;;;1.20;1.00;;;11.80;86.20;;;;;;5088989;28;20455;-75
2021/03/12 11:30:06;;;;;;;1.20;0.90;;;11.60;86.50;;;;;;5090878;28;20601;-75
2021/03/12 11:32:33;;;;;;;1.20;1.10;;;11.70;85.80;;;;;;5088972;28;20462;-74
2021/03/12 11:35:00;;;;;;;1.20;0.93;;;11.70;85.90;;;;;;5090597;28;20464;-75
2021/03/12 11:37:27;;;;;;;1.20;1.00;;;11.60;85.70;;;;;;5088738;28;21128;-74
2021/03/12 11:39:54;;;;;;;2.77;1.30;;;11.80;86.10;;;;;;5090935;28;20876;-74
2021/03/12 11:42:20;;;;;;;1.50;1.13;;;12.20;85.30;;;;;;5088754;28;20458;-74
2021/03/12 11:44:48;;;;;;;1.20;1.00;;;12.40;81.80;;;;;;5090478;28;20457;-75
2021/03/12 11:47:14;;;;;;;1.20;0.90;;;12.60;82.80;;;;;;5089407;28;20471;-74
2021/03/12 11:49:44;;;;;;;1.20;1.00;;;12.60;81.20;;;;;;5090692;28;20454;-74
2021/03/12 11:52:11;;;;;;;1.20;0.90;;;12.50;80.70;;;;;;5088250;28;20452;-74
2021/03/12 11:54:38;;;;;;;1.20;0.90;;;12.30;81.50;;;;;;5090246;28;20483;-74
2021/03/12 11:57:06;;;;;;;1.20;1.10;;;12.30;79.70;;;;;;5087823;28;20487;-74
2021/03/12 11:59:34;;;;;;;1.20;1.00;;;11.80;79.20;;;;;;5091608;28;20494;-74
2021/03/12 12:02:02;;;;;;;1.20;1.10;;;12.00;80.30;;;;;;5090003;28;20791;-74
2021/03/12 12:04:30;;;;;;;1.20;0.90;;;12.40;80.90;;;;;;5091833;28;20468;-74
2021/03/12 12:06:59;;;;;;;1.20;0.90;;;12.30;80.60;;;;;;5088159;28;20552;-74
2021/03/12 12:09:25;;;;;;;1.20;1.00;;;12.40;81.40;;;;;;5090374;28;20454;-74
2021/03/12 12:11:54;;;;;;;1.20;1.00;;;12.10;81.00;;;;;;5088063;28;20455;-82
2021/03/12 12:14:23;;;;;;;1.20;0.90;;;12.20;82.30;;;;;;5090260;28;20496;-75
2021/03/12 12:16:50;;;;;;;1.20;1.10;;;12.60;80.60;;;;;;5088043;28;20518;-75
2021/03/12 12:19:18;;;;;;;1.20;0.90;;;12.80;80.50;;;;;;5090288;28;20461;-76
2021/03/12 12:21:44;;;;;;;1.43;1.10;;;13.10;80.80;;;;;;5088143;28;20467;-70
2021/03/12 12:24:12;;;;;;;1.20;1.00;;;13.10;80.30;;;;;;5090253;28;20457;-71
2021/03/12 12:26:38;;;;;;;1.20;1.00;;;13.30;80.20;;;;;;5087138;28;20470;-73
2021/03/12 12:29:06;;;;;;;1.20;1.00;;;13.20;79.00;;;;;;5090254;28;20831;-73
2021/03/12 12:31:33;;;;;;;1.20;0.93;;;13.20;83.10;;;;;;5088354;28;20456;-73
2021/03/12 12:34:01;;;;;;;1.20;1.00;;;13.10;82.00;;;;;;5090177;28;20461;-75
2021/03/12 12:36:28;;;;;;;1.20;1.00;;;13.10;80.20;;;;;;5087738;28;20519;-75
2021/03/12 12:38:55;;;;;;;1.20;0.90;;;12.70;79.90;;;;;;5090178;28;20460;-72
2021/03/12 12:41:24;;;;;;;1.20;1.10;;;12.30;82.40;;;;;;5089598;28;20514;-74
2021/03/12 12:43:52;;;;;;;1.20;1.00;;;12.20;83.30;;;;;;5090930;28;20459;-74
2021/03/12 12:46:19;;;;;;;1.57;1.10;;;12.30;83.20;;;;;;5090141;28;20482;-74
2021/03/12 12:48:46;;;;;;;1.67;1.30;;;12.50;83.60;;;;;;5088327;28;20964;-75
2021/03/12 12:51:13;;;;;;;1.20;1.00;;;12.50;81.60;;;;;;5090239;28;20510;-75
2021/03/12 12:53:40;;;;;;;1.20;0.90;;;12.60;82.30;;;;;;5088565;28;20455;-75
2021/03/12 12:56:07;;;;;;;1.20;0.97;;;12.60;79.80;;;;;;5089030;28;20481;-74
2021/03/12 12:58:34;;;;;;;1.20;0.90;;;12.60;79.60;;;;;;5088282;28;20509;-75
2021/03/12 13:01:01;;;;;;;1.20;0.90;;;12.40;81.00;;;;;;5089203;28;20454;-76
2021/03/12 13:03:29;;;;;;;1.20;0.90;;;12.70;84.20;;;;;;5088666;28;20445;-75
2021/03/12 13:05:56;;;;;;;1.20;0.90;;;12.90;81.40;;;;;;5089925;28;20482;-72